Pagrindinis puslapis
METAR-TAF:

METAR-TAF

Oro uostai :

Šarm el Šeichas, Egiptas

platuma: 27-58N, ilguma: 034-23E, Aukštis: 50 m

Dabartinis oras

Ataskaita buvo paskelbta 1 valandą ir 57 minutes, ne 02:00 UTC
Vėjas 13 kt iš Šiaurės
Temperatūra 30°C
Drėgmė 49%
Slėgis 1004 hPa
Matomumas 10 km arba daugiau
nėra debesų žemiau 1500 m ir nėra kamuolinių lietaus debesų

METAR: HESH 160200Z 36013KT CAVOK 30/18 Q1004 NOSIG

Laikas: 05:57 (03:57 UTC)

Prognozė

Ataskaita buvo paskelbta 4 valandos ir 57 minutes, ne 23:00 UTC
Prognozė galioja nuo 16 metu 00 UTC su 17 metu 06 UTC
Vėjas 10 kt iš Šiaurės/Šiaurės Vakarų
Matomumas 10 km arba daugiau
nėra debesų žemiau 1500 m ir nėra kamuolinių lietaus debesų

TAF: HESH 152300Z 1600/1706 34010KT CAVOK

Orai ataskaitas ir orų prognozės (METAR, TAF).

turimą stotys yra geltonos ir raudonos taškus žemėlapyje.

Perkelti pele per norėdami pamatyti stoties vardą.

Tada spustelėkite, norėdami matyti oro stebėjimo ir prognozės.

Norėdami pakeisti žemėlapį: spustelėkite ant žalios mygtukų su juodo kryžiaus žemyn,; žalią mygtuką su brūkšneliu, jei norite nutolinti; arba žalių rodyklių gretimoms žemėlapius.


METAR-TAF: